WXM80 ListenWXM80 Stop

You find our weather info also at:

UK Metoffice

WeatherCloud

Weather Underground

Northeastern Weather Network

AWEKAS

Citizen Weather Observer Program (CWOP)

HAMweather, WeatherForYou, PWS Weather


Weather Underground History page Text

Daily Summary for August 30, 2017 Units:  Metric    English   Both
« Previous Day
Next Day »
Daily Weekly Monthly Yearly Custom
  High: Low: Average:
Temperature: 27.1 °C 15.4 °C 20.1 °C
Dew Point: 17.3 °C 13.2 °C 15.3 °C
Humidity: 97 % 46 % 77 %
Wind Speed: 15.4 km/h 0 km/h 5.3 km/h
Wind Gust: 29.6 km/h - -
Wind:- - SSE
Pressure: 1014.1 hPa 1011.1 hPa -
Precipitation: 8.38 mm    
Historical Graphs
 
 
Tabular Data for August 30, 2017
Time Temperature Dew Point Pressure Wind Wind Speed Wind Gust Humidity Rainfall Rate (Hourly)
00:02 17.4 °C 16.8 °C 1013.4 hPa East 10.8 km/h 16.7 km/h 96 % 1.52 mm
00:07 17.4 °C 16.8 °C 1013.8 hPa ENE 6 km/h 13 km/h 96 % 1.27 mm
00:12 17.4 °C 16.8 °C 1013.8 hPa ESE 5.6 km/h 11.1 km/h 96 % 1.52 mm
00:18 17.3 °C 16.7 °C 1014.1 hPa East 4 km/h 7.4 km/h 96 % 1.27 mm
00:23 17.1 °C 16.4 °C 1013.8 hPa East 4.5 km/h 7.4 km/h 96 % 1.27 mm
00:28 17 °C 16.3 °C 1013.8 hPa East 3.4 km/h 5.6 km/h 96 % 1.27 mm
00:33 16.9 °C 16.3 °C 1013.8 hPa East 2.9 km/h 5.6 km/h 96 % 1.27 mm
00:38 16.9 °C 16.3 °C 1013.8 hPa East 3.7 km/h 9.7 km/h 96 % 2.29 mm
00:43 17 °C 16.5 °C 1013.8 hPa ENE 6.4 km/h 12.9 km/h 97 % 3.3 mm
00:48 17 °C 16.5 °C 1013.8 hPa ENE 13 km/h 20.9 km/h 97 % 4.06 mm
00:53 17 °C 16.5 °C 1013.8 hPa North 10.1 km/h 18.5 km/h 97 % 4.32 mm
00:58 16.9 °C 16.4 °C 1013.8 hPa NNE 6.9 km/h 22.2 km/h 97 % 4.57 mm
01:03 16.9 °C 16.2 °C 1013.4 hPa NNE 8.9 km/h 18.5 km/h 96 % 4.83 mm
01:08 16.8 °C 16.2 °C 1013.1 hPa ENE 7.1 km/h 24.1 km/h 96 % 5.33 mm
01:13 16.8 °C 16.2 °C 1013.4 hPa ENE 7.6 km/h 18.5 km/h 96 % 5.33 mm
01:18 16.8 °C 16.1 °C 1013.8 hPa NE 8.2 km/h 16.7 km/h 96 % 5.59 mm
01:23 16.7 °C 16.1 °C 1013.4 hPa ENE 9.2 km/h 13 km/h 96 % 5.84 mm
01:28 16.7 °C 16 °C 1013.1 hPa NE 7.7 km/h 16.7 km/h 96 % 5.59 mm
01:33 16.7 °C 16 °C 1013.1 hPa NNE 5 km/h 18.5 km/h 96 % 5.59 mm
01:38 16.6 °C 16.1 °C 1013.4 hPa NE 8.5 km/h 18.5 km/h 97 % 4.32 mm
01:43 16.6 °C 16.1 °C 1013.1 hPa NNE 9.2 km/h 14.8 km/h 97 % 3.81 mm
01:48 16.6 °C 16.1 °C 1012.8 hPa ENE 11.9 km/h 19.3 km/h 97 % 3.05 mm
01:53 16.5 °C 15.8 °C 1012.1 hPa NE 8 km/h 11.1 km/h 96 % 3.05 mm
01:54 16.5 °C 15.8 °C 1012.1 hPa NNE 8 km/h 14.8 km/h 96 % 2.79 mm
01:59 16.5 °C 15.8 °C 1013.1 hPa North 9.3 km/h 25.7 km/h 96 % 3.05 mm
02:04 16.4 °C 15.8 °C 1012.8 hPa NE 14.3 km/h 29.6 km/h 96 % 3.05 mm
02:09 16.4 °C 15.9 °C 1012.4 hPa North 12.1 km/h 24.1 km/h 97 % 2.54 mm
02:14 16.4 °C 15.9 °C 1012.1 hPa ENE 12.1 km/h 17.7 km/h 97 % 2.54 mm
02:19 16.4 °C 15.9 °C 1012.4 hPa NE 8.9 km/h 20.4 km/h 97 % 2.29 mm
02:24 16.4 °C 15.9 °C 1012.4 hPa NNE 7.4 km/h 20.9 km/h 97 % 2.03 mm
02:29 16.3 °C 15.8 °C 1012.4 hPa NNE 13.7 km/h 22.2 km/h 97 % 2.03 mm
02:34 16.3 °C 15.8 °C 1012.1 hPa East 6.9 km/h 14.8 km/h 97 % 2.03 mm
02:39 16.2 °C 15.7 °C 1011.7 hPa NE 12.9 km/h 22.2 km/h 97 % 1.78 mm
02:44 16.2 °C 15.7 °C 1011.4 hPa East 13.2 km/h 25.9 km/h 97 % 1.52 mm
02:49 16.2 °C 15.6 °C 1011.7 hPa NNE 9.2 km/h 27.8 km/h 96 % 1.27 mm
02:54 16.2 °C 15.6 °C 1011.7 hPa East 14.5 km/h 24.1 km/h 96 % 1.02 mm
02:59 16.2 °C 15.6 °C 1012.1 hPa NNE 11.4 km/h 16.7 km/h 96 % 0.76 mm
03:04 16.2 °C 15.6 °C 1011.7 hPa NE 7.4 km/h 13 km/h 96 % 0.51 mm
03:09 16.2 °C 15.6 °C 1011.7 hPa ESE 6.6 km/h 16.1 km/h 96 % 0.51 mm
03:14 16.2 °C 15.6 °C 1012.1 hPa NNE 8.7 km/h 18.5 km/h 96 % 0.25 mm
03:19 16.2 °C 15.6 °C 1012.1 hPa ENE 9 km/h 18.5 km/h 96 % 0.25 mm
03:24 16.1 °C 15.5 °C 1011.7 hPa NE 6.8 km/h 14.5 km/h 96 % 0.25 mm
03:29 16.1 °C 15.5 °C 1011.7 hPa NNE 9.2 km/h 11.3 km/h 96 % 0 mm
03:34 16.1 °C 15.5 °C 1011.7 hPa ENE 11.4 km/h 17.7 km/h 96 % 0 mm
03:40 16.1 °C 15.4 °C 1011.7 hPa ENE 10.3 km/h 25.9 km/h 96 % 0 mm
03:45 16.1 °C 15.4 °C 1011.7 hPa NE 7.6 km/h 14.8 km/h 96 % 0 mm
03:50 16 °C 15.4 °C 1011.7 hPa NNE 9.3 km/h 20.4 km/h 96 % 0 mm
03:55 16 °C 15.4 °C 1011.7 hPa NE 8.7 km/h 13 km/h 96 % 0 mm
04:00 15.9 °C 15.3 °C 1011.7 hPa NE 7.1 km/h 14.8 km/h 96 % 0 mm
04:05 15.9 °C 15.3 °C 1011.7 hPa North 12.4 km/h 20.4 km/h 96 % 0 mm
04:10 15.8 °C 15.2 °C 1011.7 hPa NNE 6.4 km/h 16.1 km/h 96 % 0 mm
04:15 15.8 °C 15.2 °C 1011.7 hPa ENE 12.2 km/h 20.4 km/h 96 % 0 mm
04:20 15.8 °C 15.2 °C 1011.7 hPa North 11.4 km/h 18.5 km/h 96 % 0 mm
04:25 15.8 °C 15.2 °C 1012.1 hPa North 13 km/h 20.4 km/h 96 % 0 mm
04:30 15.7 °C 14.9 °C 1012.1 hPa NE 14.8 km/h 25.9 km/h 95 % 0 mm
04:35 15.8 °C 15 °C 1012.1 hPa North 11.3 km/h 24.1 km/h 95 % 0 mm
04:40 15.7 °C 14.9 °C 1012.1 hPa NNE 9.2 km/h 16.1 km/h 95 % 0 mm
04:45 15.7 °C 14.9 °C 1011.7 hPa North 13.4 km/h 22.2 km/h 95 % 0 mm
04:50 15.6 °C 14.8 °C 1011.7 hPa NNE 9.7 km/h 20.4 km/h 95 % 0 mm
04:55 15.6 °C 14.8 °C 1011.7 hPa ENE 10 km/h 16.7 km/h 95 % 0 mm
05:00 15.5 °C 14.7 °C 1011.7 hPa ENE 7.2 km/h 14.8 km/h 95 % 0 mm
05:01 15.5 °C 14.7 °C 1011.7 hPa East 8.4 km/h 14.8 km/h 95 % 0 mm
05:06 15.5 °C 14.7 °C 1011.7 hPa NNE 9 km/h 18.5 km/h 95 % 0 mm
05:11 15.4 °C 14.7 °C 1011.7 hPa NNE 9.7 km/h 25.9 km/h 95 % 0 mm
05:16 15.4 °C 14.7 °C 1011.7 hPa NNE 10.9 km/h 16.7 km/h 95 % 0 mm
05:21 15.4 °C 14.7 °C 1011.7 hPa NNE 10.6 km/h 16.7 km/h 95 % 0 mm
05:26 15.5 °C 14.7 °C 1011.7 hPa NNE 9.5 km/h 18.5 km/h 95 % 0 mm
05:28 15.5 °C 14.7 °C 1011.7 hPa NNE 8.2 km/h 20.4 km/h 95 % 0 mm
05:33 15.5 °C 14.7 °C 1011.7 hPa NNE 12.1 km/h 18.5 km/h 95 % 0 mm
05:38 15.5 °C 14.6 °C 1011.7 hPa NE 7.9 km/h 12.9 km/h 94 % 0 mm
05:43 15.5 °C 14.6 °C 1011.7 hPa North 12.4 km/h 18.5 km/h 94 % 0 mm
05:48 15.5 °C 14.6 °C 1011.7 hPa NNE 6.6 km/h 14.5 km/h 94 % 0 mm
05:53 15.5 °C 14.6 °C 1011.7 hPa NNE 6.9 km/h 14.8 km/h 94 % 0 mm
05:58 15.5 °C 14.6 °C 1011.7 hPa NNE 9 km/h 16.7 km/h 94 % 0 mm
06:03 15.6 °C 14.6 °C 1011.7 hPa NNE 11.7 km/h 18.5 km/h 94 % 0 mm
06:08 15.6 °C 14.7 °C 1011.7 hPa NNW 6.6 km/h 11.1 km/h 94 % 0 mm
06:13 15.7 °C 14.7 °C 1011.7 hPa North 11.6 km/h 16.1 km/h 94 % 0 mm
06:18 15.7 °C 14.7 °C 1011.7 hPa NNE 10.6 km/h 16.7 km/h 94 % 0 mm
06:23 15.7 °C 14.7 °C 1011.7 hPa NNE 11.9 km/h 16.7 km/h 94 % 0 mm
06:28 15.7 °C 14.8 °C 1011.7 hPa NNE 8.9 km/h 12.9 km/h 94 % 0 mm
06:33 15.7 °C 14.8 °C 1011.7 hPa NE 7.9 km/h 16.7 km/h 94 % 0 mm
06:38 15.7 °C 14.8 °C 1011.7 hPa NNE 10.3 km/h 20.4 km/h 94 % 0 mm
06:43 15.8 °C 14.8 °C 1012.1 hPa NNE 10 km/h 18.5 km/h 94 % 0 mm
06:48 15.8 °C 14.9 °C 1012.1 hPa NNE 9 km/h 13 km/h 94 % 0 mm
06:53 15.8 °C 14.7 °C 1012.1 hPa NNE 12.9 km/h 18.5 km/h 93 % 0 mm
06:58 15.9 °C 14.8 °C 1012.4 hPa NNE 15.4 km/h 18.5 km/h 93 % 0 mm
07:03 15.9 °C 14.8 °C 1012.4 hPa North 13.7 km/h 18.5 km/h 93 % 0 mm
07:08 15.9 °C 14.8 °C 1012.4 hPa North 9.3 km/h 11.1 km/h 93 % 0 mm
07:14 15.9 °C 14.8 °C 1012.4 hPa NNE 10.8 km/h 16.7 km/h 93 % 0 mm
07:19 16 °C 14.9 °C 1012.4 hPa NNE 10.9 km/h 19.3 km/h 93 % 0 mm
07:24 16 °C 14.9 °C 1012.4 hPa North 8.9 km/h 11.3 km/h 93 % 0 mm
07:29 16.1 °C 14.9 °C 1012.4 hPa North 7.2 km/h 14.8 km/h 93 % 0 mm
07:34 16.1 °C 14.9 °C 1012.4 hPa NNE 7.6 km/h 13 km/h 93 % 0 mm
07:39 16.1 °C 15 °C 1012.8 hPa NE 9.8 km/h 18.5 km/h 93 % 0 mm
07:44 16.1 °C 15 °C 1012.8 hPa NNE 8.7 km/h 14.8 km/h 93 % 0 mm
07:49 16.2 °C 15.1 °C 1012.8 hPa North 11.6 km/h 18.5 km/h 93 % 0 mm
07:54 16.2 °C 14.9 °C 1012.8 hPa North 6.1 km/h 18.5 km/h 92 % 0 mm
07:59 16.2 °C 15.1 °C 1012.8 hPa North 11.3 km/h 18.5 km/h 93 % 0 mm
08:04 16.2 °C 14.9 °C 1012.8 hPa NE 7.4 km/h 16.7 km/h 92 % 0 mm
08:09 16.3 °C 15 °C 1012.8 hPa North 11.9 km/h 18.5 km/h 92 % 0 mm
08:14 16.3 °C 15.1 °C 1012.8 hPa North 6.8 km/h 16.7 km/h 92 % 0 mm
08:19 16.5 °C 15.2 °C 1012.8 hPa North 10.9 km/h 16.7 km/h 92 % 0 mm
08:24 16.6 °C 15.1 °C 1012.8 hPa NNW 6.4 km/h 13 km/h 91 % 0 mm
08:29 16.7 °C 15.2 °C 1012.8 hPa NNE 8.7 km/h 14.8 km/h 91 % 0 mm
08:34 16.8 °C 15.3 °C 1012.8 hPa NNE 10.6 km/h 16.1 km/h 91 % 0 mm
08:39 16.9 °C 15.3 °C 1012.8 hPa East 10.8 km/h 18.5 km/h 90 % 0 mm
08:44 17 °C 15.3 °C 1012.8 hPa NNE 11.6 km/h 18.5 km/h 90 % 0 mm
08:49 17.2 °C 15.5 °C 1012.8 hPa NNE 11.3 km/h 16.7 km/h 90 % 0 mm
08:54 17.2 °C 15.4 °C 1012.8 hPa North 13.2 km/h 20.4 km/h 89 % 0 mm
08:59 17.2 °C 15.2 °C 1012.8 hPa North 10.5 km/h 18.5 km/h 88 % 0 mm
09:05 17.3 °C 15.3 °C 1012.8 hPa NE 6.6 km/h 9.3 km/h 88 % 0 mm
09:10 17.3 °C 15.3 °C 1012.4 hPa North 8.9 km/h 13 km/h 88 % 0 mm
09:15 17.3 °C 15.2 °C 1012.4 hPa NE 10.5 km/h 18.5 km/h 87 % 0 mm
09:20 17.4 °C 15.2 °C 1012.8 hPa NNE 6.6 km/h 14.8 km/h 87 % 0 mm
09:25 17.4 °C 15.3 °C 1012.8 hPa NNW 8.9 km/h 11.3 km/h 87 % 0 mm
09:30 17.6 °C 15.4 °C 1012.8 hPa NNW 9.3 km/h 11.1 km/h 87 % 0 mm
09:35 17.7 °C 15.3 °C 1012.8 hPa NNE 7.9 km/h 13 km/h 86 % 0 mm
09:40 17.7 °C 15.3 °C 1012.8 hPa NNW 9.2 km/h 18.5 km/h 86 % 0 mm
09:45 17.8 °C 15.3 °C 1012.8 hPa North 9.3 km/h 19.3 km/h 85 % 0 mm
09:50 18.1 °C 15.2 °C 1012.8 hPa NNE 7.6 km/h 14.8 km/h 83 % 0 mm
09:55 18.5 °C 15.6 °C 1012.8 hPa North 8.7 km/h 13 km/h 83 % 0 mm
10:00 18.8 °C 15.7 °C 1012.8 hPa NNE 6.8 km/h 11.3 km/h 82 % 0 mm
10:05 19.1 °C 15.4 °C 1012.8 hPa North 6 km/h 9.7 km/h 79 % 0 mm
10:11 19.3 °C 15.6 °C 1012.8 hPa NNE 8 km/h 12.9 km/h 79 % 0 mm
10:16 19.3 °C 15.4 °C 1012.8 hPa NNE 3.2 km/h 14.5 km/h 78 % 0 mm
10:21 19.3 °C 15 °C 1012.8 hPa NNE 8 km/h 19.3 km/h 76 % 0 mm
10:26 19.3 °C 14.7 °C 1012.8 hPa NNE 9.7 km/h 19.3 km/h 75 % 0 mm
10:31 19.2 °C 14.9 °C 1012.4 hPa North 3.2 km/h 11.3 km/h 76 % 0 mm
10:36 19.3 °C 14.9 °C 1012.4 hPa North 11.3 km/h 20.9 km/h 76 % 0 mm
10:41 19.4 °C 15.1 °C 1012.4 hPa NNE 9.7 km/h 19.3 km/h 76 % 0 mm
10:46 19.6 °C 15 °C 1012.8 hPa NNE 4.8 km/h 19.3 km/h 75 % 0 mm
10:51 19.7 °C 15.5 °C 1012.8 hPa NNE 4.8 km/h 12.9 km/h 77 % 0 mm
10:56 19.9 °C 15.1 °C 1012.8 hPa North 4.8 km/h 19.3 km/h 74 % 0 mm
11:01 20.2 °C 15.4 °C 1012.8 hPa NNE 6.4 km/h 14.8 km/h 74 % 0 mm
11:06 20.7 °C 16.3 °C 1012.8 hPa North 3.9 km/h 6.4 km/h 76 % 0 mm
11:10 21.1 °C 16 °C 1012.8 hPa NNE 7.7 km/h 11.1 km/h 73 % 0 mm
11:15 21.6 °C 16.3 °C 1012.8 hPa North 3.5 km/h 7.4 km/h 72 % 0 mm
11:20 22.1 °C 16.4 °C 1012.8 hPa NNW 2.7 km/h 7.4 km/h 70 % 0 mm
11:25 22.5 °C 16.3 °C 1012.8 hPa NNE 4.2 km/h 5.6 km/h 68 % 0 mm
11:30 22.9 °C 16.4 °C 1012.8 hPa NNW 1.9 km/h 6.4 km/h 67 % 0 mm
11:35 23.2 °C 16.5 °C 1012.8 hPa NNE 1.6 km/h 3.7 km/h 66 % 0 mm
11:40 23.6 °C 16.1 °C 1012.8 hPa NNE 4.7 km/h 9.3 km/h 63 % 0 mm
11:45 23.8 °C 16.8 °C 1012.8 hPa NNW 1.4 km/h 3.7 km/h 65 % 0 mm
11:50 24.1 °C 16.8 °C 1012.8 hPa North 1.4 km/h 3.7 km/h 64 % 0 mm
11:55 24.3 °C 16.6 °C 1012.8 hPa NNE 1.9 km/h 5.6 km/h 62 % 0 mm
12:00 24.6 °C 17.1 °C 1012.8 hPa WNW 0.3 km/h 1.9 km/h 63 % 0 mm
12:10 24.8 °C 16.2 °C 1012.8 hPa WNW 3.5 km/h 9.3 km/h 59 % 0 mm
12:15 24.9 °C 16.6 °C 1012.8 hPa NNE 1.6 km/h 5.6 km/h 60 % 0 mm
12:20 24.9 °C 16.8 °C 1012.8 hPa NNE 0.5 km/h 5.6 km/h 61 % 0 mm
12:26 25.1 °C 16.2 °C 1012.4 hPa North 3.2 km/h 8 km/h 58 % 0 mm
12:30 25.2 °C 16.3 °C 1012.4 hPa NNE 0.3 km/h 5.6 km/h 58 % 0 mm
12:36 25.3 °C 17.3 °C 1012.4 hPa Calm   1.6 km/h 61 % 0 mm
12:41 25.6 °C 17.3 °C 1012.4 hPa NNE 0.5 km/h 5.6 km/h 60 % 0 mm
12:46 25.7 °C 16.8 °C 1012.4 hPa North 1.6 km/h 9.7 km/h 58 % 0 mm
12:51 25.8 °C 16.9 °C 1012.4 hPa NNE 3.5 km/h 5.6 km/h 58 % 0 mm
12:56 25.8 °C 16.1 °C 1012.4 hPa NNE 2.4 km/h 7.4 km/h 55 % 0 mm
13:01 25.8 °C 15.8 °C 1012.4 hPa NNE 6 km/h 9.3 km/h 54 % 0 mm
13:06 25.9 °C 16.2 °C 1012.4 hPa North 3.5 km/h 7.4 km/h 55 % 0 mm
13:11 26 °C 15.7 °C 1012.4 hPa NNW 1 km/h 3.7 km/h 53 % 0 mm
13:21 26.1 °C 14.9 °C 1012.4 hPa WNW 3.1 km/h 9.7 km/h 50 % 0 mm
13:26 26.2 °C 15.2 °C 1012.1 hPa WNW 2.1 km/h 9.7 km/h 51 % 0 mm
13:31 26.2 °C 16.7 °C 1012.1 hPa NW 1.3 km/h 5.6 km/h 56 % 0 mm
13:36 26.2 °C 15.9 °C 1012.4 hPa NNW 1.9 km/h 5.6 km/h 53 % 0 mm
13:41 26.2 °C 15.3 °C 1012.1 hPa WSW 0.3 km/h 5.6 km/h 51 % 0 mm
13:46 26.3 °C 15.3 °C 1012.1 hPa SW 4.5 km/h 7.4 km/h 51 % 0 mm
13:51 26.3 °C 16.3 °C 1012.1 hPa WNW 3.1 km/h 5.6 km/h 54 % 0 mm
13:56 26.5 °C 15.8 °C 1011.7 hPa NNW 3.2 km/h 5.6 km/h 52 % 0 mm
14:01 26.5 °C 15.2 °C 1011.7 hPa WNW 0.3 km/h 7.4 km/h 50 % 0 mm
14:06 26.7 °C 16.9 °C 1011.7 hPa WSW 0.3 km/h 1.6 km/h 55 % 0 mm
14:11 26.8 °C 16.1 °C 1011.7 hPa WSW 1 km/h 5.6 km/h 52 % 0 mm
14:21 26.9 °C 14.3 °C 1011.7 hPa West 0.2 km/h 1.9 km/h 46 % 0 mm
14:26 26.8 °C 15.8 °C 1011.7 hPa NNE 3.2 km/h 6.4 km/h 51 % 0 mm
14:31 26.7 °C 15.7 °C 1011.4 hPa West 1.9 km/h 5.6 km/h 51 % 0 mm
14:36 26.7 °C 15.7 °C 1011.7 hPa WNW 4.8 km/h 6.4 km/h 51 % 0 mm
14:41 26.8 °C 16.4 °C 1011.7 hPa West 2.7 km/h 7.4 km/h 53 % 0 mm
14:47 26.8 °C 15.8 °C 1011.4 hPa WSW 5 km/h 7.4 km/h 51 % 0 mm
14:52 26.8 °C 15.6 °C 1011.7 hPa SW 4.7 km/h 9.7 km/h 50 % 0 mm
14:57 26.9 °C 15.3 °C 1011.7 hPa SW 3.2 km/h 7.4 km/h 49 % 0 mm
15:02 26.9 °C 15.6 °C 1011.7 hPa WSW 6.1 km/h 9.3 km/h 50 % 0 mm
15:07 26.9 °C 15.3 °C 1011.7 hPa West 2.3 km/h 3.7 km/h 49 % 0 mm
15:12 27 °C 16.3 °C 1011.7 hPa WNW 5.1 km/h 11.3 km/h 52 % 0 mm
15:17 27 °C 15.7 °C 1011.7 hPa WSW 6.4 km/h 9.3 km/h 50 % 0 mm
15:22 27 °C 14.7 °C 1011.7 hPa WSW 7.4 km/h 11.3 km/h 47 % 0 mm
15:25 26.9 °C 15.3 °C 1011.4 hPa West 7.1 km/h 11.1 km/h 49 % 0 mm
15:30 26.9 °C 15.3 °C 1011.4 hPa WSW 0.8 km/h 5.6 km/h 49 % 0 mm
15:35 27 °C 15.4 °C 1011.4 hPa WSW 8 km/h 11.1 km/h 49 % 0 mm
15:40 27 °C 15.1 °C 1011.4 hPa WSW 3.1 km/h 11.1 km/h 48 % 0 mm
15:45 27 °C 15.4 °C 1011.1 hPa West 2.9 km/h 5.6 km/h 49 % 0 mm
15:50 27.1 °C 15.1 °C 1011.1 hPa West 5 km/h 13 km/h 48 % 0 mm
15:55 26.9 °C 15 °C 1011.4 hPa South 5.8 km/h 7.4 km/h 48 % 0 mm
16:00 26.9 °C 14.9 °C 1011.4 hPa WNW 2.4 km/h 8 km/h 48 % 0 mm
16:05 26.8 °C 15.2 °C 1011.1 hPa SW 3.1 km/h 9.3 km/h 49 % 0 mm
16:10 26.8 °C 15.6 °C 1011.1 hPa SSW 4.5 km/h 7.4 km/h 50 % 0 mm
16:15 26.8 °C 15.2 °C 1011.1 hPa West 5.1 km/h 5.6 km/h 49 % 0 mm
16:20 26.9 °C 15.3 °C 1011.1 hPa West 1.6 km/h 4.8 km/h 49 % 0 mm
16:25 26.9 °C 15.3 °C 1011.1 hPa SW 2.9 km/h 5.6 km/h 49 % 0 mm
16:30 26.9 °C 14.9 °C 1011.1 hPa WNW 1.4 km/h 11.1 km/h 48 % 0 mm
16:35 26.8 °C 15.2 °C 1011.1 hPa SW 4.2 km/h 5.6 km/h 49 % 0 mm
16:41 26.8 °C 14.9 °C 1011.1 hPa WSW 4.8 km/h 12.9 km/h 48 % 0 mm
16:46 26.7 °C 15.4 °C 1011.1 hPa Calm   4.8 km/h 50 % 0 mm
16:51 26.7 °C 15.4 °C 1011.1 hPa WSW 3.2 km/h 8 km/h 50 % 0 mm
16:56 26.6 °C 14.7 °C 1011.1 hPa WSW 4.8 km/h 8 km/h 48 % 0 mm
17:01 26.5 °C 14.6 °C 1011.1 hPa SW 3.9 km/h 5.6 km/h 48 % 0 mm
17:06 26.4 °C 14.2 °C 1011.1 hPa WNW 4.5 km/h 8 km/h 47 % 0 mm
17:11 26.3 °C 14.1 °C 1011.1 hPa SW 5.3 km/h 14.8 km/h 47 % 0 mm
17:16 26.3 °C 13.7 °C 1011.1 hPa SW 6.4 km/h 13 km/h 46 % 0 mm
17:21 26.2 °C 13.9 °C 1011.1 hPa WSW 4.7 km/h 11.1 km/h 47 % 0 mm
17:26 26.1 °C 13.6 °C 1011.1 hPa SW 4.2 km/h 11.1 km/h 46 % 0 mm
17:31 26 °C 13.8 °C 1011.1 hPa WSW 3.9 km/h 7.4 km/h 47 % 0 mm
17:36 25.9 °C 13.7 °C 1011.1 hPa West 4.2 km/h 5.6 km/h 47 % 0 mm
17:41 25.8 °C 14.3 °C 1011.1 hPa SSW 3.1 km/h 9.3 km/h 49 % 0 mm
17:46 25.7 °C 13.2 °C 1011.1 hPa SW 3.5 km/h 7.4 km/h 46 % 0 mm
17:51 25.6 °C 13.8 °C 1011.1 hPa SW 1.6 km/h 5.6 km/h 48 % 0 mm
17:56 25.6 °C 13.4 °C 1011.1 hPa WSW 0.2 km/h 3.7 km/h 47 % 0 mm
18:01 25.4 °C 13.3 °C 1011.1 hPa WSW 1.6 km/h 3.7 km/h 47 % 0 mm
18:06 25.3 °C 13.2 °C 1011.1 hPa WSW 0.5 km/h 1.9 km/h 47 % 0 mm
18:16 25.1 °C 13.6 °C 1011.1 hPa WSW 1.4 km/h 3.7 km/h 49 % 0 mm
18:26 24.8 °C 13.9 °C 1011.1 hPa Calm   1.9 km/h 51 % 0 mm
18:31 24.6 °C 14.4 °C 1011.1 hPa Calm   1.9 km/h 53 % 0 mm
18:36 24.4 °C 14.6 °C 1011.1 hPa Calm     54 % 0 mm
18:41 24.3 °C 14.9 °C 1011.1 hPa Calm     56 % 0 mm
18:46 24.1 °C 14.8 °C 1011.1 hPa Calm     56 % 0 mm
18:51 23.9 °C 15.2 °C 1011.1 hPa Calm     58 % 0 mm
18:56 23.7 °C 15.5 °C 1011.1 hPa Calm     60 % 0 mm
19:01 23.5 °C 15.8 °C 1011.1 hPa Calm     62 % 0 mm
19:06 23.3 °C 15.8 °C 1011.1 hPa Calm     63 % 0 mm
19:11 23.1 °C 15.9 °C 1011.1 hPa Calm     64 % 0 mm
19:21 22.6 °C 15.9 °C 1011.1 hPa Calm     66 % 0 mm
19:26 22.3 °C 15.6 °C 1011.1 hPa Calm     66 % 0 mm
19:31 22.1 °C 15.7 °C 1011.1 hPa Calm     67 % 0 mm
19:36 21.9 °C 15.7 °C 1011.1 hPa Calm     68 % 0 mm
19:41 21.7 °C 15.3 °C 1011.1 hPa Calm     67 % 0 mm
19:46 21.4 °C 14.8 °C 1011.1 hPa WSW 0.2 km/h   66 % 0 mm
19:51 21.3 °C 14.7 °C 1011.1 hPa Calm     66 % 0 mm
19:56 21.1 °C 14.7 °C 1011.1 hPa Calm     67 % 0 mm
20:02 20.9 °C 14.6 °C 1011.1 hPa Calm     67 % 0 mm
20:07 20.8 °C 14.9 °C 1011.1 hPa Calm     69 % 0 mm
20:12 20.6 °C 14.9 °C 1011.1 hPa Calm     70 % 0 mm
20:17 20.4 °C 14.9 °C 1011.1 hPa Calm     71 % 0 mm
20:22 20.3 °C 14.8 °C 1011.1 hPa Calm     71 % 0 mm
20:27 20.1 °C 14.9 °C 1011.1 hPa Calm     72 % 0 mm
20:32 19.9 °C 14.9 °C 1011.1 hPa WSW 0.2 km/h 1.9 km/h 73 % 0 mm
20:37 19.8 °C 14.8 °C 1011.4 hPa WSW 0.2 km/h 1.9 km/h 73 % 0 mm
20:42 19.7 °C 14.6 °C 1011.4 hPa Calm     72 % 0 mm
20:47 19.7 °C 14.7 °C 1011.4 hPa Calm     73 % 0 mm
20:52 19.5 °C 14.7 °C 1011.4 hPa Calm     74 % 0 mm
20:57 19.4 °C 14.6 °C 1011.4 hPa Calm     74 % 0 mm
21:02 19.3 °C 14.7 °C 1011.4 hPa Calm     75 % 0 mm
21:07 19.2 °C 14.6 °C 1011.4 hPa Calm   1.6 km/h 75 % 0 mm
21:12 19.1 °C 14.7 °C 1011.4 hPa Calm   1.9 km/h 76 % 0 mm
21:17 18.9 °C 14.6 °C 1011.4 hPa WSW 0.2 km/h 1.9 km/h 76 % 0 mm
21:22 18.9 °C 14.8 °C 1011.4 hPa Calm     77 % 0 mm
21:27 18.8 °C 14.7 °C 1011.4 hPa WSW 0.2 km/h 1.9 km/h 77 % 0 mm
21:32 18.7 °C 14.8 °C 1011.4 hPa WSW 0.2 km/h 1.9 km/h 78 % 0 mm
21:37 18.7 °C 14.8 °C 1011.4 hPa WSW 0.3 km/h 1.9 km/h 78 % 0 mm
21:42 18.6 °C 14.9 °C 1011.4 hPa Calm     79 % 0 mm
21:47 18.6 °C 15.1 °C 1011.7 hPa Calm   1.9 km/h 80 % 0 mm
21:52 18.5 °C 15 °C 1011.7 hPa Calm     80 % 0 mm
21:57 18.4 °C 14.9 °C 1011.7 hPa WSW 0.5 km/h 1.9 km/h 80 % 0 mm
22:02 18.4 °C 15.1 °C 1011.4 hPa WSW 2.6 km/h 7.4 km/h 81 % 0 mm
22:08 18.3 °C 15 °C 1011.7 hPa WSW 0.5 km/h 3.7 km/h 81 % 0 mm
22:13 18.3 °C 14.9 °C 1011.7 hPa WSW 0.2 km/h 1.9 km/h 81 % 0 mm
22:18 18.2 °C 14.9 °C 1011.7 hPa WSW 0.2 km/h 1.9 km/h 81 % 0 mm
22:23 18.2 °C 14.9 °C 1011.7 hPa Calm   1.9 km/h 81 % 0 mm
22:28 18.2 °C 14.8 °C 1011.7 hPa WSW 1.9 km/h 5.6 km/h 81 % 0 mm
22:33 18.2 °C 14.8 °C 1011.4 hPa WSW 0.2 km/h 1.9 km/h 81 % 0 mm
22:38 18.2 °C 15.1 °C 1011.4 hPa SW 0.8 km/h 5.6 km/h 82 % 0 mm
22:43 18.2 °C 15.1 °C 1011.4 hPa SW 0.8 km/h 3.7 km/h 82 % 0 mm
22:48 18.2 °C 15.1 °C 1011.4 hPa SW 1.1 km/h 3.7 km/h 82 % 0 mm
22:53 18.2 °C 15.1 °C 1011.4 hPa SW 0.3 km/h 1.9 km/h 82 % 0 mm
22:58 18.2 °C 15.1 °C 1011.4 hPa SW 1.1 km/h 4.8 km/h 82 % 0 mm
23:03 18.2 °C 15.1 °C 1011.4 hPa WSW 0.6 km/h 3.7 km/h 82 % 0 mm
23:08 18.2 °C 15.1 °C 1011.4 hPa Calm     82 % 0 mm
23:14 18.3 °C 15.2 °C 1011.4 hPa Calm     82 % 0 mm
23:19 18.3 °C 14.9 °C 1011.4 hPa Calm   1.9 km/h 81 % 0 mm
23:21 18.3 °C 14.9 °C 1011.4 hPa Calm     81 % 0 mm
23:26 18.3 °C 14.9 °C 1011.4 hPa Calm   1.9 km/h 81 % 0 mm
23:32 18.3 °C 14.9 °C 1011.4 hPa SW 0.2 km/h 1.9 km/h 81 % 0 mm
23:34 18.3 °C 15 °C 1011.4 hPa West 1.4 km/h 3.7 km/h 81 % 0 mm
23:39 18.3 °C 15 °C 1011.4 hPa Calm     81 % 0 mm
23:44 18.3 °C 15 °C 1011.4 hPa Calm     81 % 0 mm
23:49 18.3 °C 15 °C 1011.4 hPa WSW 0.2 km/h 1.9 km/h 81 % 0 mm
23:54 18.3 °C 15 °C 1011.1 hPa SW 0.2 km/h 1.9 km/h 81 % 0 mm
23:59 18.4 °C 15.1 °C 1011.1 hPa SW 1.9 km/h 5.6 km/h 81 % 0 mm
Crab Meadow Weather
Compliments of Weather Underground - 3 mb

Script developed by  Jim McMurry - jmcmurry@mwt.net Adapted for the template by  Wim van der Kuil - Leuven-Template.eu

Recycling: Out of every $10 spent buying things, $1 (10%) goes for packaging that is thrown away. Packaging represents about 65% of household trash.